VABB/BOM METAR and TAF weather

Enter ICAO airport designator
Station Type Date Time Source
VABB METAR 2024/04/18 06:30 UTC NOAA

VABB 180630Z 27009KT 2500 HZ NSC 32/25 Q1009 NOSIG


Station Type Date Time Source
VABB Decoded METAR 2024/04/18 06:30 UTC NOAA

Bombay / Santacruz, India (VABB) 19-07N 072-51E 14M
Apr 18, 2024 - 02:30 AM EDT / 2024.04.18 0630 UTC
Wind: from the W (270 degrees) at 10 MPH (9 KT):0
Visibility: 1 mile(s):0
Weather: haze
Temperature: 89 F (32 C)
Heat index: 100.6 F (38.1 C):1
Dew Point: 77 F (25 C)
Relative Humidity: 66%
Pressure (altimeter): 29.80 in. Hg (1009 hPa)
ob: VABB 180630Z 27009KT 2500 HZ NSC 32/25 Q1009 NOSIG
cycle: 6

Station Type Date Time Source
VABB TAF 2024/04/18 18:52 UTC NOAA